sensor_id;sensor_type;location;lat;lon;timestamp;P1;durP1;ratioP1;P2;durP2;ratioP2
56911;SDS011;42800;53.928;27.662;2023-06-26T00:02:09;4.25;;;2.88;;
56911;SDS011;42800;53.928;27.662;2023-06-26T00:04:35;5.60;;;1.98;;
56911;SDS011;42800;53.928;27.662;2023-06-26T00:07:02;3.35;;;2.13;;
56911;SDS011;42800;53.928;27.662;2023-06-26T00:09:29;2.85;;;2.40;;
56911;SDS011;42800;53.928;27.662;2023-06-26T00:11:55;3.38;;;1.90;;
56911;SDS011;42800;53.928;27.662;2023-06-26T00:14:21;2.92;;;2.40;;
56911;SDS011;42800;53.928;27.662;2023-06-26T00:16:47;3.42;;;3.13;;
56911;SDS011;42800;53.928;27.662;2023-06-26T00:19:14;2.53;;;2.20;;
56911;SDS011;42800;53.928;27.662;2023-06-26T00:21:40;3.92;;;3.10;;
56911;SDS011;42800;53.928;27.662;2023-06-26T00:24:06;8.82;;;2.55;;
56911;SDS011;42800;53.928;27.662;2023-06-26T00:26:33;3.25;;;2.22;;
56911;SDS011;42800;53.928;27.662;2023-06-26T00:28:58;2.85;;;2.65;;
56911;SDS011;42800;53.928;27.662;2023-06-26T00:31:24;2.50;;;2.30;;
56911;SDS011;42800;53.928;27.662;2023-06-26T00:33:50;5.00;;;2.90;;
56911;SDS011;42800;53.928;27.662;2023-06-26T00:36:16;7.43;;;2.20;;
56911;SDS011;42800;53.928;27.662;2023-06-26T00:38:42;3.38;;;2.15;;
56911;SDS011;42800;53.928;27.662;2023-06-26T00:41:08;3.33;;;2.10;;
56911;SDS011;42800;53.928;27.662;2023-06-26T00:43:38;3.38;;;2.35;;
56911;SDS011;42800;53.928;27.662;2023-06-26T00:46:05;3.65;;;2.42;;
56911;SDS011;42800;53.928;27.662;2023-06-26T00:48:34;4.95;;;3.05;;
56911;SDS011;42800;53.928;27.662;2023-06-26T00:51:00;2.67;;;2.28;;
56911;SDS011;42800;53.928;27.662;2023-06-26T00:53:27;10.00;;;1.98;;
56911;SDS011;42800;53.928;27.662;2023-06-26T00:55:53;2.67;;;2.17;;
56911;SDS011;42800;53.928;27.662;2023-06-26T00:58:20;3.97;;;2.80;;
56911;SDS011;42800;53.928;27.662;2023-06-26T01:00:49;3.97;;;2.85;;
56911;SDS011;42800;53.928;27.662;2023-06-26T01:03:16;3.33;;;2.10;;
56911;SDS011;42800;53.928;27.662;2023-06-26T01:05:42;2.53;;;2.33;;
56911;SDS011;42800;53.928;27.662;2023-06-26T01:08:10;2.50;;;2.20;;
56911;SDS011;42800;53.928;27.662;2023-06-26T01:10:37;5.55;;;2.70;;
56911;SDS011;42800;53.928;27.662;2023-06-26T01:13:03;6.97;;;2.10;;
56911;SDS011;42800;53.928;27.662;2023-06-26T01:15:30;2.55;;;2.00;;
56911;SDS011;42800;53.928;27.662;2023-06-26T01:17:57;3.65;;;2.30;;
56911;SDS011;42800;53.928;27.662;2023-06-26T01:20:28;5.55;;;3.13;;
56911;SDS011;42800;53.928;27.662;2023-06-26T01:22:56;7.15;;;2.28;;
56911;SDS011;42800;53.928;27.662;2023-06-26T01:25:32;2.92;;;2.45;;
56911;SDS011;42800;53.928;27.662;2023-06-26T01:28:07;3.78;;;2.58;;
56911;SDS011;42800;53.928;27.662;2023-06-26T01:30:34;6.13;;;2.63;;
56911;SDS011;42800;53.928;27.662;2023-06-26T01:33:03;7.60;;;2.20;;
56911;SDS011;42800;53.928;27.662;2023-06-26T01:35:30;2.45;;;2.25;;
56911;SDS011;42800;53.928;27.662;2023-06-26T01:38:10;7.65;;;2.53;;
56911;SDS011;42800;53.928;27.662;2023-06-26T01:40:37;3.47;;;2.35;;
56911;SDS011;42800;53.928;27.662;2023-06-26T01:43:03;2.22;;;2.03;;
56911;SDS011;42800;53.928;27.662;2023-06-26T01:45:32;8.98;;;3.25;;
56911;SDS011;42800;53.928;27.662;2023-06-26T01:47:58;5.43;;;2.78;;
56911;SDS011;42800;53.928;27.662;2023-06-26T01:50:28;4.47;;;2.30;;
56911;SDS011;42800;53.928;27.662;2023-06-26T01:52:58;4.55;;;2.50;;
56911;SDS011;42800;53.928;27.662;2023-06-26T01:55:31;7.68;;;2.35;;
56911;SDS011;42800;53.928;27.662;2023-06-26T01:58:01;2.38;;;2.17;;
56911;SDS011;42800;53.928;27.662;2023-06-26T02:00:27;6.30;;;2.60;;
56911;SDS011;42800;53.928;27.662;2023-06-26T02:02:55;2.60;;;2.40;;
56911;SDS011;42800;53.928;27.662;2023-06-26T02:05:21;3.75;;;2.22;;
56911;SDS011;42800;53.928;27.662;2023-06-26T02:07:48;3.17;;;2.33;;
56911;SDS011;42800;53.928;27.662;2023-06-26T02:10:15;3.78;;;2.25;;
56911;SDS011;42800;53.928;27.662;2023-06-26T02:12:41;3.38;;;3.08;;
56911;SDS011;42800;53.928;27.662;2023-06-26T02:15:07;3.83;;;2.30;;
56911;SDS011;42800;53.928;27.662;2023-06-26T02:17:34;5.97;;;2.40;;
56911;SDS011;42800;53.928;27.662;2023-06-26T02:20:00;4.72;;;2.55;;
56911;SDS011;42800;53.928;27.662;2023-06-26T02:22:26;4.90;;;2.45;;
56911;SDS011;42800;53.928;27.662;2023-06-26T02:24:53;9.38;;;2.63;;
56911;SDS011;42800;53.928;27.662;2023-06-26T02:27:19;3.58;;;2.50;;
56911;SDS011;42800;53.928;27.662;2023-06-26T02:29:45;3.15;;;2.40;;
56911;SDS011;42800;53.928;27.662;2023-06-26T02:32:11;5.03;;;2.40;;
56911;SDS011;42800;53.928;27.662;2023-06-26T02:34:37;3.17;;;2.60;;
56911;SDS011;42800;53.928;27.662;2023-06-26T02:37:04;3.97;;;2.58;;
56911;SDS011;42800;53.928;27.662;2023-06-26T02:39:32;3.80;;;2.72;;
56911;SDS011;42800;53.928;27.662;2023-06-26T02:41:58;3.03;;;2.45;;
56911;SDS011;42800;53.928;27.662;2023-06-26T02:44:24;3.25;;;2.72;;
56911;SDS011;42800;53.928;27.662;2023-06-26T02:46:50;3.00;;;2.33;;
56911;SDS011;42800;53.928;27.662;2023-06-26T02:49:16;3.72;;;3.15;;
56911;SDS011;42800;53.928;27.662;2023-06-26T02:51:42;3.20;;;2.30;;
56911;SDS011;42800;53.928;27.662;2023-06-26T02:54:08;6.93;;;2.70;;
56911;SDS011;42800;53.928;27.662;2023-06-26T02:56:34;5.07;;;2.72;;
56911;SDS011;42800;53.928;27.662;2023-06-26T02:59:00;2.85;;;2.45;;
56911;SDS011;42800;53.928;27.662;2023-06-26T03:01:26;2.72;;;2.53;;
56911;SDS011;42800;53.928;27.662;2023-06-26T03:03:52;3.78;;;2.42;;
56911;SDS011;42800;53.928;27.662;2023-06-26T03:06:18;2.63;;;2.42;;
56911;SDS011;42800;53.928;27.662;2023-06-26T03:08:44;6.07;;;2.67;;
56911;SDS011;42800;53.928;27.662;2023-06-26T03:11:10;4.90;;;3.47;;
56911;SDS011;42800;53.928;27.662;2023-06-26T03:13:36;4.28;;;2.53;;
56911;SDS011;42800;53.928;27.662;2023-06-26T03:16:02;9.00;;;2.75;;
56911;SDS011;42800;53.928;27.662;2023-06-26T03:18:29;2.47;;;2.25;;
56911;SDS011;42800;53.928;27.662;2023-06-26T03:20:55;3.75;;;2.53;;
56911;SDS011;42800;53.928;27.662;2023-06-26T03:23:22;3.67;;;2.42;;
56911;SDS011;42800;53.928;27.662;2023-06-26T03:25:49;3.67;;;2.20;;
56911;SDS011;42800;53.928;27.662;2023-06-26T03:28:15;4.22;;;2.20;;
56911;SDS011;42800;53.928;27.662;2023-06-26T03:30:41;7.28;;;2.50;;
56911;SDS011;42800;53.928;27.662;2023-06-26T03:33:08;6.32;;;3.78;;
56911;SDS011;42800;53.928;27.662;2023-06-26T03:35:33;6.60;;;2.72;;
56911;SDS011;42800;53.928;27.662;2023-06-26T03:38:00;4.28;;;2.67;;
56911;SDS011;42800;53.928;27.662;2023-06-26T03:40:27;5.30;;;2.80;;
56911;SDS011;42800;53.928;27.662;2023-06-26T03:42:52;2.92;;;2.55;;
56911;SDS011;42800;53.928;27.662;2023-06-26T03:45:19;3.65;;;2.70;;
56911;SDS011;42800;53.928;27.662;2023-06-26T03:47:45;4.22;;;2.50;;
56911;SDS011;42800;53.928;27.662;2023-06-26T03:50:14;5.40;;;2.58;;
56911;SDS011;42800;53.928;27.662;2023-06-26T03:52:39;6.00;;;3.40;;
56911;SDS011;42800;53.928;27.662;2023-06-26T03:55:05;2.97;;;2.30;;
56911;SDS011;42800;53.928;27.662;2023-06-26T03:57:32;6.68;;;3.38;;
56911;SDS011;42800;53.928;27.662;2023-06-26T03:59:58;5.65;;;2.72;;
56911;SDS011;42800;53.928;27.662;2023-06-26T04:02:24;3.08;;;2.60;;
56911;SDS011;42800;53.928;27.662;2023-06-26T04:04:50;3.65;;;2.60;;
56911;SDS011;42800;53.928;27.662;2023-06-26T04:07:17;5.75;;;3.05;;
56911;SDS011;42800;53.928;27.662;2023-06-26T04:09:43;4.78;;;2.95;;
56911;SDS011;42800;53.928;27.662;2023-06-26T04:12:09;6.10;;;3.28;;
56911;SDS011;42800;53.928;27.662;2023-06-26T04:14:35;3.13;;;2.55;;
56911;SDS011;42800;53.928;27.662;2023-06-26T04:17:01;5.88;;;2.92;;
56911;SDS011;42800;53.928;27.662;2023-06-26T04:19:29;6.07;;;3.90;;
56911;SDS011;42800;53.928;27.662;2023-06-26T04:21:55;3.15;;;2.55;;
56911;SDS011;42800;53.928;27.662;2023-06-26T04:24:21;2.95;;;2.75;;
56911;SDS011;42800;53.928;27.662;2023-06-26T04:26:47;3.22;;;2.70;;
56911;SDS011;42800;53.928;27.662;2023-06-26T04:29:13;5.70;;;2.97;;
56911;SDS011;42800;53.928;27.662;2023-06-26T04:31:39;6.18;;;3.15;;
56911;SDS011;42800;53.928;27.662;2023-06-26T04:34:05;8.05;;;3.00;;
56911;SDS011;42800;53.928;27.662;2023-06-26T04:36:31;4.25;;;3.15;;
56911;SDS011;42800;53.928;27.662;2023-06-26T04:38:58;4.45;;;2.58;;
56911;SDS011;42800;53.928;27.662;2023-06-26T04:41:24;5.22;;;2.85;;
56911;SDS011;42800;53.928;27.662;2023-06-26T04:43:50;4.15;;;2.53;;
56911;SDS011;42800;53.928;27.662;2023-06-26T04:46:16;4.28;;;2.70;;
56911;SDS011;42800;53.928;27.662;2023-06-26T04:48:42;3.45;;;3.00;;
56911;SDS011;42800;53.928;27.662;2023-06-26T04:51:09;4.50;;;2.63;;
56911;SDS011;42800;53.928;27.662;2023-06-26T04:53:36;5.60;;;2.90;;
56911;SDS011;42800;53.928;27.662;2023-06-26T04:56:02;3.25;;;2.95;;
56911;SDS011;42800;53.928;27.662;2023-06-26T04:58:28;3.13;;;2.67;;
56911;SDS011;42800;53.928;27.662;2023-06-26T05:00:54;3.80;;;2.60;;
56911;SDS011;42800;53.928;27.662;2023-06-26T05:03:20;5.38;;;3.10;;
56911;SDS011;42800;53.928;27.662;2023-06-26T05:05:47;7.15;;;2.65;;
56911;SDS011;42800;53.928;27.662;2023-06-26T05:08:13;4.43;;;2.78;;
56911;SDS011;42800;53.928;27.662;2023-06-26T05:10:41;2.70;;;2.50;;
56911;SDS011;42800;53.928;27.662;2023-06-26T05:13:07;6.43;;;2.70;;
56911;SDS011;42800;53.928;27.662;2023-06-26T05:15:33;4.72;;;2.92;;
56911;SDS011;42800;53.928;27.662;2023-06-26T05:18:07;8.25;;;3.50;;
56911;SDS011;42800;53.928;27.662;2023-06-26T05:20:33;7.43;;;3.33;;
56911;SDS011;42800;53.928;27.662;2023-06-26T05:22:59;6.82;;;3.28;;
56911;SDS011;42800;53.928;27.662;2023-06-26T05:25:26;7.78;;;3.53;;
56911;SDS011;42800;53.928;27.662;2023-06-26T05:27:54;3.63;;;3.10;;
56911;SDS011;42800;53.928;27.662;2023-06-26T05:30:21;4.78;;;3.42;;
56911;SDS011;42800;53.928;27.662;2023-06-26T05:32:47;4.35;;;3.80;;
56911;SDS011;42800;53.928;27.662;2023-06-26T05:35:15;3.53;;;3.22;;
56911;SDS011;42800;53.928;27.662;2023-06-26T05:37:42;4.60;;;3.33;;
56911;SDS011;42800;53.928;27.662;2023-06-26T05:40:08;4.75;;;3.63;;
56911;SDS011;42800;53.928;27.662;2023-06-26T05:42:35;3.50;;;3.20;;
56911;SDS011;42800;53.928;27.662;2023-06-26T05:45:01;7.35;;;3.55;;
56911;SDS011;42800;53.928;27.662;2023-06-26T05:47:27;5.85;;;3.55;;
56911;SDS011;42800;53.928;27.662;2023-06-26T05:49:53;5.03;;;3.90;;
56911;SDS011;42800;53.928;27.662;2023-06-26T05:52:21;7.22;;;4.03;;
56911;SDS011;42800;53.928;27.662;2023-06-26T05:54:47;5.65;;;2.60;;
56911;SDS011;42800;53.928;27.662;2023-06-26T05:57:13;10.10;;;3.25;;
56911;SDS011;42800;53.928;27.662;2023-06-26T05:59:41;6.82;;;2.90;;
56911;SDS011;42800;53.928;27.662;2023-06-26T06:02:09;5.72;;;3.53;;
56911;SDS011;42800;53.928;27.662;2023-06-26T06:04:35;6.03;;;3.88;;
56911;SDS011;42800;53.928;27.662;2023-06-26T06:07:02;6.45;;;3.28;;
56911;SDS011;42800;53.928;27.662;2023-06-26T06:09:29;10.95;;;3.80;;
56911;SDS011;42800;53.928;27.662;2023-06-26T06:11:55;9.07;;;3.78;;
56911;SDS011;42800;53.928;27.662;2023-06-26T06:14:21;9.40;;;3.75;;
56911;SDS011;42800;53.928;27.662;2023-06-26T06:16:47;6.65;;;3.67;;
56911;SDS011;42800;53.928;27.662;2023-06-26T06:19:12;3.55;;;3.20;;
56911;SDS011;42800;53.928;27.662;2023-06-26T06:21:38;3.78;;;3.47;;
56911;SDS011;42800;53.928;27.662;2023-06-26T06:24:05;8.35;;;3.35;;
56911;SDS011;42800;53.928;27.662;2023-06-26T06:26:32;5.63;;;2.70;;
56911;SDS011;42800;53.928;27.662;2023-06-26T06:28:58;4.05;;;3.30;;
56911;SDS011;42800;53.928;27.662;2023-06-26T06:31:24;5.03;;;3.50;;
56911;SDS011;42800;53.928;27.662;2023-06-26T06:33:50;3.00;;;2.80;;
56911;SDS011;42800;53.928;27.662;2023-06-26T06:36:16;3.63;;;2.90;;
56911;SDS011;42800;53.928;27.662;2023-06-26T06:38:42;5.30;;;2.70;;
56911;SDS011;42800;53.928;27.662;2023-06-26T06:41:09;3.00;;;2.80;;
56911;SDS011;42800;53.928;27.662;2023-06-26T06:43:35;7.15;;;3.40;;
56911;SDS011;42800;53.928;27.662;2023-06-26T06:46:01;4.85;;;3.08;;
56911;SDS011;42800;53.928;27.662;2023-06-26T06:48:27;4.90;;;2.80;;
56911;SDS011;42800;53.928;27.662;2023-06-26T06:50:53;4.63;;;2.58;;
56911;SDS011;42800;53.928;27.662;2023-06-26T06:53:19;4.57;;;2.40;;
56911;SDS011;42800;53.928;27.662;2023-06-26T06:55:45;4.63;;;2.60;;
56911;SDS011;42800;53.928;27.662;2023-06-26T06:58:11;3.47;;;2.60;;
56911;SDS011;42800;53.928;27.662;2023-06-26T07:00:38;2.65;;;2.45;;
56911;SDS011;42800;53.928;27.662;2023-06-26T07:03:04;3.72;;;2.05;;
56911;SDS011;42800;53.928;27.662;2023-06-26T07:05:30;5.28;;;2.10;;
56911;SDS011;42800;53.928;27.662;2023-06-26T07:07:56;4.15;;;2.00;;
56911;SDS011;42800;53.928;27.662;2023-06-26T07:10:21;3.42;;;1.60;;
56911;SDS011;42800;53.928;27.662;2023-06-26T07:12:47;9.50;;;2.30;;
56911;SDS011;42800;53.928;27.662;2023-06-26T07:15:13;2.75;;;2.50;;
56911;SDS011;42800;53.928;27.662;2023-06-26T07:17:41;2.10;;;2.00;;
56911;SDS011;42800;53.928;27.662;2023-06-26T07:20:07;2.75;;;2.20;;
56911;SDS011;42800;53.928;27.662;2023-06-26T07:22:35;3.63;;;2.00;;
56911;SDS011;42800;53.928;27.662;2023-06-26T07:25:01;5.90;;;2.05;;
56911;SDS011;42800;53.928;27.662;2023-06-26T07:27:29;5.93;;;2.22;;
56911;SDS011;42800;53.928;27.662;2023-06-26T07:29:54;3.90;;;2.15;;
56911;SDS011;42800;53.928;27.662;2023-06-26T07:32:20;3.95;;;2.30;;
56911;SDS011;42800;53.928;27.662;2023-06-26T07:34:47;2.03;;;1.92;;
56911;SDS011;42800;53.928;27.662;2023-06-26T07:37:13;5.20;;;1.98;;
56911;SDS011;42800;53.928;27.662;2023-06-26T07:39:39;5.05;;;1.90;;
56911;SDS011;42800;53.928;27.662;2023-06-26T07:42:05;2.88;;;2.00;;
56911;SDS011;42800;53.928;27.662;2023-06-26T07:44:31;6.45;;;2.30;;
56911;SDS011;42800;53.928;27.662;2023-06-26T07:46:56;6.65;;;2.30;;
56911;SDS011;42800;53.928;27.662;2023-06-26T07:49:23;6.30;;;2.40;;
56911;SDS011;42800;53.928;27.662;2023-06-26T07:51:49;1.98;;;1.88;;
56911;SDS011;42800;53.928;27.662;2023-06-26T07:54:15;2.03;;;1.92;;
56911;SDS011;42800;53.928;27.662;2023-06-26T07:56:54;5.15;;;3.38;;
56911;SDS011;42800;53.928;27.662;2023-06-26T07:59:21;3.03;;;2.40;;
56911;SDS011;42800;53.928;27.662;2023-06-26T08:01:47;6.75;;;2.30;;
56911;SDS011;42800;53.928;27.662;2023-06-26T08:04:14;3.17;;;2.42;;
56911;SDS011;42800;53.928;27.662;2023-06-26T08:06:39;1.90;;;1.80;;
56911;SDS011;42800;53.928;27.662;2023-06-26T08:09:06;3.13;;;2.28;;
56911;SDS011;42800;53.928;27.662;2023-06-26T08:11:33;2.10;;;1.65;;
56911;SDS011;42800;53.928;27.662;2023-06-26T08:13:59;2.53;;;1.90;;
56911;SDS011;42800;53.928;27.662;2023-06-26T08:16:25;5.78;;;2.03;;
56911;SDS011;42800;53.928;27.662;2023-06-26T08:18:51;4.07;;;2.03;;
56911;SDS011;42800;53.928;27.662;2023-06-26T08:21:17;2.50;;;1.90;;
56911;SDS011;42800;53.928;27.662;2023-06-26T08:23:42;2.40;;;2.03;;
56911;SDS011;42800;53.928;27.662;2023-06-26T08:26:09;2.17;;;1.80;;
56911;SDS011;42800;53.928;27.662;2023-06-26T08:28:35;2.17;;;1.90;;
56911;SDS011;42800;53.928;27.662;2023-06-26T08:31:01;2.00;;;1.80;;
56911;SDS011;42800;53.928;27.662;2023-06-26T08:33:27;3.65;;;1.45;;
56911;SDS011;42800;53.928;27.662;2023-06-26T08:35:53;1.73;;;1.63;;
56911;SDS011;42800;53.928;27.662;2023-06-26T08:38:19;3.15;;;1.90;;
56911;SDS011;42800;53.928;27.662;2023-06-26T08:40:46;2.05;;;1.80;;
56911;SDS011;42800;53.928;27.662;2023-06-26T08:43:13;2.30;;;2.20;;
56911;SDS011;42800;53.928;27.662;2023-06-26T08:45:39;4.40;;;2.00;;
56911;SDS011;42800;53.928;27.662;2023-06-26T08:48:06;2.40;;;1.80;;
56911;SDS011;42800;53.928;27.662;2023-06-26T08:50:34;2.22;;;1.63;;
56911;SDS011;42800;53.928;27.662;2023-06-26T08:53:02;3.20;;;2.05;;
56911;SDS011;42800;53.928;27.662;2023-06-26T08:55:32;5.15;;;2.20;;
56911;SDS011;42800;53.928;27.662;2023-06-26T08:58:01;4.50;;;2.03;;
56911;SDS011;42800;53.928;27.662;2023-06-26T09:00:27;5.28;;;2.28;;
56911;SDS011;42800;53.928;27.662;2023-06-26T09:02:54;2.10;;;2.00;;
56911;SDS011;42800;53.928;27.662;2023-06-26T09:05:21;2.05;;;1.85;;
56911;SDS011;42800;53.928;27.662;2023-06-26T09:07:47;2.25;;;1.98;;
56911;SDS011;42800;53.928;27.662;2023-06-26T09:10:13;2.47;;;2.13;;
56911;SDS011;42800;53.928;27.662;2023-06-26T09:12:39;2.90;;;1.95;;
56911;SDS011;42800;53.928;27.662;2023-06-26T09:15:05;3.55;;;2.20;;
56911;SDS011;42800;53.928;27.662;2023-06-26T09:17:33;6.13;;;2.30;;
56911;SDS011;42800;53.928;27.662;2023-06-26T09:20:04;1.88;;;1.77;;
56911;SDS011;42800;53.928;27.662;2023-06-26T09:22:33;2.28;;;2.17;;
56911;SDS011;42800;53.928;27.662;2023-06-26T09:25:02;3.00;;;2.15;;
56911;SDS011;42800;53.928;27.662;2023-06-26T09:27:28;3.08;;;1.95;;
56911;SDS011;42800;53.928;27.662;2023-06-26T09:29:55;3.95;;;2.30;;
56911;SDS011;42800;53.928;27.662;2023-06-26T09:32:23;2.13;;;1.80;;
56911;SDS011;42800;53.928;27.662;2023-06-26T09:34:52;3.17;;;2.33;;
56911;SDS011;42800;53.928;27.662;2023-06-26T09:37:18;3.22;;;2.13;;
56911;SDS011;42800;53.928;27.662;2023-06-26T09:39:45;3.63;;;2.03;;
56911;SDS011;42800;53.928;27.662;2023-06-26T09:42:13;9.07;;;3.15;;
56911;SDS011;42800;53.928;27.662;2023-06-26T09:44:43;2.65;;;2.20;;
56911;SDS011;42800;53.928;27.662;2023-06-26T09:47:09;2.28;;;2.08;;
56911;SDS011;42800;53.928;27.662;2023-06-26T09:49:35;2.28;;;2.10;;
56911;SDS011;42800;53.928;27.662;2023-06-26T09:52:02;2.35;;;1.70;;
56911;SDS011;42800;53.928;27.662;2023-06-26T09:54:28;1.80;;;1.70;;
56911;SDS011;42800;53.928;27.662;2023-06-26T09:56:55;2.55;;;1.80;;
56911;SDS011;42800;53.928;27.662;2023-06-26T09:59:21;5.25;;;2.20;;
56911;SDS011;42800;53.928;27.662;2023-06-26T10:01:48;7.10;;;1.80;;
56911;SDS011;42800;53.928;27.662;2023-06-26T10:04:14;3.50;;;2.00;;
56911;SDS011;42800;53.928;27.662;2023-06-26T10:06:41;2.65;;;2.03;;
56911;SDS011;42800;53.928;27.662;2023-06-26T10:09:11;3.08;;;2.17;;
56911;SDS011;42800;53.928;27.662;2023-06-26T10:11:40;3.85;;;2.28;;
56911;SDS011;42800;53.928;27.662;2023-06-26T10:14:12;2.95;;;2.05;;
56911;SDS011;42800;53.928;27.662;2023-06-26T10:16:39;2.22;;;2.00;;
56911;SDS011;42800;53.928;27.662;2023-06-26T10:19:09;2.72;;;2.17;;
56911;SDS011;42800;53.928;27.662;2023-06-26T10:21:37;3.03;;;2.30;;
56911;SDS011;42800;53.928;27.662;2023-06-26T10:24:05;8.82;;;2.03;;
56911;SDS011;42800;53.928;27.662;2023-06-26T10:26:33;3.58;;;2.03;;
56911;SDS011;42800;53.928;27.662;2023-06-26T10:29:02;2.03;;;1.83;;
56911;SDS011;42800;53.928;27.662;2023-06-26T10:31:31;2.50;;;2.30;;
56911;SDS011;42800;53.928;27.662;2023-06-26T10:33:58;1.88;;;1.77;;
56911;SDS011;42800;53.928;27.662;2023-06-26T10:36:27;3.00;;;1.95;;
56911;SDS011;42800;53.928;27.662;2023-06-26T10:38:54;2.03;;;1.85;;
56911;SDS011;42800;53.928;27.662;2023-06-26T10:41:21;1.70;;;1.60;;
56911;SDS011;42800;53.928;27.662;2023-06-26T10:43:49;2.05;;;1.80;;
56911;SDS011;42800;53.928;27.662;2023-06-26T10:46:17;2.95;;;1.83;;
56911;SDS011;42800;53.928;27.662;2023-06-26T10:48:55;1.77;;;1.67;;
56911;SDS011;42800;53.928;27.662;2023-06-26T10:51:22;3.40;;;1.95;;
56911;SDS011;42800;53.928;27.662;2023-06-26T10:53:49;2.10;;;1.90;;
56911;SDS011;42800;53.928;27.662;2023-06-26T10:56:18;2.25;;;2.05;;
56911;SDS011;42800;53.928;27.662;2023-06-26T10:58:44;3.33;;;1.75;;
56911;SDS011;42800;53.928;27.662;2023-06-26T11:01:19;2.78;;;2.05;;
56911;SDS011;42800;53.928;27.662;2023-06-26T11:03:47;7.20;;;2.00;;
56911;SDS011;42800;53.928;27.662;2023-06-26T11:06:16;5.65;;;2.13;;
56911;SDS011;42800;53.928;27.662;2023-06-26T11:08:44;3.28;;;2.13;;
56911;SDS011;42800;53.928;27.662;2023-06-26T11:11:10;3.08;;;2.03;;
56911;SDS011;42800;53.928;27.662;2023-06-26T11:13:36;2.95;;;1.92;;
56911;SDS011;42800;53.928;27.662;2023-06-26T11:16:03;3.22;;;2.10;;
56911;SDS011;42800;53.928;27.662;2023-06-26T11:18:31;3.45;;;2.03;;
56911;SDS011;42800;53.928;27.662;2023-06-26T11:21:03;2.10;;;1.70;;
56911;SDS011;42800;53.928;27.662;2023-06-26T11:23:30;4.07;;;1.93;;
56911;SDS011;42800;53.928;27.662;2023-06-26T11:25:58;3.85;;;1.98;;
56911;SDS011;42800;53.928;27.662;2023-06-26T11:28:38;2.03;;;1.77;;
56911;SDS011;42800;53.928;27.662;2023-06-26T11:31:04;2.20;;;1.73;;
56911;SDS011;42800;53.928;27.662;2023-06-26T11:33:31;2.25;;;1.77;;
56911;SDS011;42800;53.928;27.662;2023-06-26T11:36:07;2.35;;;1.58;;
56911;SDS011;42800;53.928;27.662;2023-06-26T11:38:36;4.25;;;1.80;;
56911;SDS011;42800;53.928;27.662;2023-06-26T11:41:02;3.10;;;1.83;;
56911;SDS011;42800;53.928;27.662;2023-06-26T11:43:30;1.75;;;1.60;;
56911;SDS011;42800;53.928;27.662;2023-06-26T11:45:56;3.45;;;1.52;;
56911;SDS011;42800;53.928;27.662;2023-06-26T11:48:22;4.10;;;1.50;;
56911;SDS011;42800;53.928;27.662;2023-06-26T11:50:51;2.17;;;1.60;;
56911;SDS011;42800;53.928;27.662;2023-06-26T11:53:17;3.97;;;1.67;;
56911;SDS011;42800;53.928;27.662;2023-06-26T11:55:43;2.17;;;1.70;;
56911;SDS011;42800;53.928;27.662;2023-06-26T11:58:09;3.97;;;1.88;;
56911;SDS011;42800;53.928;27.662;2023-06-26T12:00:35;5.25;;;2.10;;
56911;SDS011;42800;53.928;27.662;2023-06-26T12:03:06;5.13;;;1.90;;
56911;SDS011;42800;53.928;27.662;2023-06-26T12:05:32;5.45;;;2.10;;
56911;SDS011;42800;53.928;27.662;2023-06-26T12:08:02;4.97;;;1.95;;
56911;SDS011;42800;53.928;27.662;2023-06-26T12:10:31;4.32;;;2.30;;
56911;SDS011;42800;53.928;27.662;2023-06-26T12:12:58;3.67;;;1.50;;
56911;SDS011;42800;53.928;27.662;2023-06-26T12:15:26;2.67;;;1.98;;
56911;SDS011;42800;53.928;27.662;2023-06-26T12:17:54;2.00;;;1.80;;
56911;SDS011;42800;53.928;27.662;2023-06-26T12:20:20;3.92;;;2.50;;
56911;SDS011;42800;53.928;27.662;2023-06-26T12:22:47;4.95;;;2.40;;
56911;SDS011;42800;53.928;27.662;2023-06-26T12:25:15;4.90;;;2.58;;
56911;SDS011;42800;53.928;27.662;2023-06-26T12:27:46;5.25;;;2.65;;
56911;SDS011;42800;53.928;27.662;2023-06-26T12:30:12;9.77;;;2.90;;
56911;SDS011;42800;53.928;27.662;2023-06-26T12:32:38;6.10;;;3.05;;
56911;SDS011;42800;53.928;27.662;2023-06-26T12:35:05;7.07;;;4.03;;
56911;SDS011;42800;53.928;27.662;2023-06-26T12:37:35;2.63;;;2.42;;
56911;SDS011;42800;53.928;27.662;2023-06-26T12:40:03;2.90;;;2.15;;
56911;SDS011;42800;53.928;27.662;2023-06-26T12:42:33;2.83;;;2.00;;
56911;SDS011;42800;53.928;27.662;2023-06-26T12:44:59;5.43;;;2.20;;
56911;SDS011;42800;53.928;27.662;2023-06-26T12:47:35;4.38;;;2.75;;
56911;SDS011;42800;53.928;27.662;2023-06-26T12:50:04;3.83;;;2.78;;
56911;SDS011;42800;53.928;27.662;2023-06-26T12:52:31;2.05;;;1.95;;
56911;SDS011;42800;53.928;27.662;2023-06-26T12:54:57;9.45;;;3.13;;
56911;SDS011;42800;53.928;27.662;2023-06-26T12:57:23;4.05;;;2.60;;
56911;SDS011;42800;53.928;27.662;2023-06-26T12:59:51;6.72;;;2.70;;
56911;SDS011;42800;53.928;27.662;2023-06-26T13:02:17;8.27;;;2.67;;
56911;SDS011;42800;53.928;27.662;2023-06-26T13:04:43;6.57;;;2.72;;
56911;SDS011;42800;53.928;27.662;2023-06-26T13:07:09;5.38;;;3.10;;
56911;SDS011;42800;53.928;27.662;2023-06-26T13:09:36;3.65;;;2.80;;
56911;SDS011;42800;53.928;27.662;2023-06-26T13:12:03;3.90;;;1.73;;
56911;SDS011;42800;53.928;27.662;2023-06-26T13:14:30;9.25;;;2.15;;
56911;SDS011;42800;53.928;27.662;2023-06-26T13:16:57;3.40;;;2.40;;
56911;SDS011;42800;53.928;27.662;2023-06-26T13:19:23;4.18;;;2.70;;
56911;SDS011;42800;53.928;27.662;2023-06-26T13:21:49;3.28;;;2.83;;
56911;SDS011;42800;53.928;27.662;2023-06-26T13:24:15;4.40;;;3.03;;
56911;SDS011;42800;53.928;27.662;2023-06-26T13:26:41;2.72;;;2.40;;
56911;SDS011;42800;53.928;27.662;2023-06-26T13:29:07;5.25;;;3.20;;
56911;SDS011;42800;53.928;27.662;2023-06-26T13:31:33;4.10;;;2.65;;
56911;SDS011;42800;53.928;27.662;2023-06-26T13:34:00;3.75;;;2.40;;
56911;SDS011;42800;53.928;27.662;2023-06-26T13:36:28;3.53;;;2.00;;
56911;SDS011;42800;53.928;27.662;2023-06-26T13:38:54;3.92;;;2.03;;
56911;SDS011;42800;53.928;27.662;2023-06-26T13:41:21;7.32;;;2.38;;
56911;SDS011;42800;53.928;27.662;2023-06-26T13:43:47;9.52;;;2.75;;
56911;SDS011;42800;53.928;27.662;2023-06-26T13:46:13;4.00;;;2.35;;
56911;SDS011;42800;53.928;27.662;2023-06-26T13:48:38;3.13;;;2.80;;
56911;SDS011;42800;53.928;27.662;2023-06-26T13:51:05;2.45;;;2.25;;
56911;SDS011;42800;53.928;27.662;2023-06-26T13:53:31;3.13;;;2.13;;
56911;SDS011;42800;53.928;27.662;2023-06-26T13:55:57;3.85;;;2.30;;
56911;SDS011;42800;53.928;27.662;2023-06-26T13:58:23;4.15;;;2.10;;
56911;SDS011;42800;53.928;27.662;2023-06-26T14:00:51;4.22;;;2.25;;
56911;SDS011;42800;53.928;27.662;2023-06-26T14:03:17;2.45;;;2.13;;
56911;SDS011;42800;53.928;27.662;2023-06-26T14:05:43;2.75;;;1.95;;
56911;SDS011;42800;53.928;27.662;2023-06-26T14:08:10;5.22;;;2.97;;
56911;SDS011;42800;53.928;27.662;2023-06-26T14:10:36;2.30;;;2.10;;
56911;SDS011;42800;53.928;27.662;2023-06-26T14:13:02;3.30;;;2.42;;
56911;SDS011;42800;53.928;27.662;2023-06-26T14:15:28;3.35;;;2.17;;
56911;SDS011;42800;53.928;27.662;2023-06-26T14:17:54;4.50;;;2.08;;
56911;SDS011;42800;53.928;27.662;2023-06-26T14:20:21;1.95;;;1.80;;
56911;SDS011;42800;53.928;27.662;2023-06-26T14:22:47;3.35;;;2.17;;
56911;SDS011;42800;53.928;27.662;2023-06-26T14:25:15;3.55;;;2.13;;
56911;SDS011;42800;53.928;27.662;2023-06-26T14:27:42;2.92;;;2.28;;
56911;SDS011;42800;53.928;27.662;2023-06-26T14:30:08;3.42;;;2.25;;
56911;SDS011;42800;53.928;27.662;2023-06-26T14:32:35;3.40;;;2.00;;